Flight Track Log - Related Links

Times and Time Zones

All times are in EDT time to prevent confusion due to time zone crossing. See the EJA831 flight status page for this flight to view local times or setup timezone preferences in your user account.

Time Position Orientation Groundspeed Altitude Reporting Facility
EDT Latitude Longitude Course Direction KTS MPH feet Rate Location/Type
Mon 10:06:00 AM 41.5325 -93.6642 222° Southwest 170 196 1,500  Level Minneapolis Center
Mon 10:07:05 AM 41.4794 -93.7275 222° Southwest 222 255 4,500 2,929 Climbing Minneapolis Center
Mon 10:08:07 AM 41.4506 -93.6503 117° Southeast 277 319 7,700 2,661 Climbing Minneapolis Center
Mon 10:09:09 AM 41.4694 -93.5397 77° East 302 348 10,000 1,366 Climbing Minneapolis Center
Mon 10:10:10 AM 41.4978 -93.4269 71° East 317 365 10,500 1,073 Climbing Minneapolis Center
Mon 10:11:12 AM 41.5261 -93.3069 72° East 334 384 12,200 1,645 Climbing Minneapolis Center
Mon 10:12:14 AM 41.5500 -93.1828 76° East 342 394 13,900 2,177 Climbing Minneapolis Center
Mon 10:13:16 AM 41.5731 -93.0586 76° East 346 398 16,700 2,952 Climbing Minneapolis Center
Mon 10:14:18 AM 41.5997 -92.9125 76° East 343 395 20,000 2,927 Climbing Minneapolis Center
Mon 10:15:19 AM 41.6225 -92.7903 76° East 341 392 22,700 1,463 Climbing Minneapolis Center
Mon 10:16:21 AM 41.6467 -92.6622 76° East 345 397 23,000 145 Climbing Minneapolis Center
Mon 10:17:23 AM 41.6753 -92.5114 76° East 377 434 23,000  Level Minneapolis Center
Mon 10:18:25 AM 41.7022 -92.3533 77° East 419 482 23,000  Level Minneapolis Center
Mon 10:19:27 AM 41.7358 -92.1703 76° East 428 493 23,000  Level Minneapolis Center
Mon 10:20:29 AM 41.7633 -92.0153 77° East 431 496 23,000  Level Minneapolis Center
Mon 10:21:31 AM 41.7906 -91.8608 77° East 431 496 23,000  Level Minneapolis Center
Mon 10:22:33 AM 41.8189 -91.6939 77° East 430 495 23,000  Level Minneapolis Center
Mon 10:23:49 AM 41.8544 -91.4964 76° East 425 489 23,000  Level Chicago Center
Mon 10:24:51 AM 41.8800 -91.3450 77° East 423 487 23,000  Level Chicago Center
Mon 10:25:53 AM 41.9058 -91.1947 77° East 420 483 23,000  Level Chicago Center
Mon 10:26:55 AM 41.9317 -91.0442 77° East 420 483 23,000  Level Chicago Center
Mon 10:27:57 AM 41.9614 -90.8625 78° East 419 482 23,000  Level Chicago Center
Mon 10:28:59 AM 41.9878 -90.7122 77° East 419 482 23,000  Level Chicago Center
Mon 10:30:01 AM 42.0117 -90.5625 78° East 415 478 23,000  Level Chicago Center
Mon 10:31:03 AM 42.0353 -90.4117 78° East 416 479 23,000 -677 Level Chicago Center
Mon 10:32:05 AM 42.0581 -90.2642 78° East 410 472 21,600 -1,935 Descending Chicago Center
Mon 10:33:07 AM 42.0881 -90.0869 77° East 407 468 19,000 -2,208 Descending Chicago Center
Mon 10:34:10 AM 42.1117 -89.9406 78° East 405 466 17,000 -1,920 Descending Chicago Center
Mon 10:35:12 AM 42.1342 -89.8017 78° East 392 451 15,000 -1,935 Descending Chicago Center
Mon 10:36:14 AM 42.1550 -89.6686 78° East 374 430 13,000 -1,935 Descending Chicago Center
Mon 10:37:16 AM 42.1800 -89.5133 78° East 357 411 11,000 -1,452 Descending Chicago Center
Mon 10:38:18 AM 42.1961 -89.4003 79° East 316 364 10,000 -1,306 Descending Chicago Center
Mon 10:39:20 AM 42.2125 -89.2897 79° East 303 349 8,300 -968 Descending Chicago Center
Mon 10:40:22 AM 42.2303 -89.1786 78° East 304 350 8,000 -145 Descending Chicago Center
Mon 10:41:24 AM 42.2553 -89.0708 73° East 302 348 8,000  Level Chicago Center
Mon 10:42:27 AM 42.2775 -88.9644 74° East 297 342 8,000  Level Chicago Center
Mon 10:43:29 AM 42.3044 -88.8369 74° East 296 341 8,000 -581 Level Chicago Center
Mon 10:44:31 AM 42.3264 -88.7306 74° East 295 339 6,800 -1,306 Descending Chicago Center
Mon 10:45:33 AM 42.3492 -88.6250 74° East 295 339 5,300 -871 Descending Chicago Center
Mon 10:46:35 AM 42.3694 -88.5253 75° East 283 326 5,000 -242 Descending Chicago Center
Mon 10:47:37 AM 42.3717 -88.4342 88° East 261 300 4,800 -484 Descending Chicago Center
Mon 10:48:39 AM 42.3653 -88.3331 95° East 267 307 4,000 -387 Descending Chicago Center
Mon 10:49:41 AM 42.3569 -88.2225 96° East 257 296 4,000  Level Chicago Center
Mon 10:50:43 AM 42.3522 -88.1325 94° East 251 289 4,000  Level Chicago Center
Mon 10:51:45 AM 42.3353 -88.0561 107° East 237 273 4,000  Level Chicago Center
Mon 10:52:47 AM 42.2972 -88.0028 134° Southeast 212 244 4,000 -387 Level Chicago Center
Mon 10:53:49 AM 42.2497 -87.9750 157° South 198 228 3,200 -823 Descending Chicago Center
Mon 10:54:51 AM 42.2050 -87.9472 155° Southeast 167 192 2,300 -732 Descending Chicago Center
Mon 10:55:52 AM 42.1758 -87.9328 160° South 137 158 1,700 -590 Descending Chicago Center
Mon 10:59:00 AM 42.1143 -87.9015 152° Southeast  Level Estimated

Login

Don't have an account? Register now (free) for customized features, flight alerts, and more!